createdAt,value
2017-09-21T00:02:34.508Z,94130.17
2017-09-21T00:17:34.455Z,94144.12
2017-09-21T00:32:36.404Z,94152.59
2017-09-21T00:47:34.375Z,94153.89
2017-09-21T01:02:34.835Z,94156.29
2017-09-21T01:17:34.794Z,94148.28
2017-09-21T01:32:34.827Z,94172.33
2017-09-21T01:47:35.051Z,94172.75
2017-09-21T02:02:35.166Z,94169.14
2017-09-21T02:17:37.183Z,94177.95
2017-09-21T02:32:35.232Z,94169.14
2017-09-21T02:47:35.054Z,94168.13
2017-09-21T03:17:34.515Z,94175.84
2017-09-21T03:32:34.661Z,94184.05
2017-09-21T03:47:34.422Z,94185.03
2017-09-21T04:02:34.870Z,94206.42
2017-09-21T04:17:34.923Z,94216.02
2017-09-21T04:32:35.224Z,94213.26
2017-09-21T04:47:35.503Z,94218.31
2017-09-21T05:02:34.237Z,94211.30
2017-09-21T05:17:35.325Z,94212.27
2017-09-21T05:32:37.155Z,94201.67
2017-09-21T05:47:35.376Z,94211.74
2017-09-21T06:02:34.567Z,94204.77
2017-09-21T06:17:34.547Z,94225.16
2017-09-21T06:32:34.499Z,94222.09
2017-09-21T06:47:34.476Z,94232.22
2017-09-21T07:02:34.916Z,94231.87
2017-09-21T07:17:34.895Z,94249.36
2017-09-21T07:32:34.822Z,94263.05
2017-09-21T07:47:34.814Z,94266.91
2017-09-21T08:02:36.188Z,94270.80
2017-09-21T08:17:34.190Z,94268.58
2017-09-21T08:32:35.209Z,94265.52
2017-09-21T08:47:38.154Z,94263.17
2017-09-21T09:02:34.661Z,94274.78
2017-09-21T09:17:34.566Z,94278.22
2017-09-21T09:32:42.246Z,94272.37
2017-09-21T09:47:36.022Z,94263.54
2017-09-21T10:02:41.915Z,94269.73
2017-09-21T10:17:34.983Z,94266.19
2017-09-21T10:32:34.954Z,94253.63
2017-09-21T10:47:34.918Z,94261.53
2017-09-21T11:02:34.294Z,94254.23
2017-09-21T11:17:34.269Z,94247.77
2017-09-21T11:32:34.243Z,94242.34
2017-09-21T11:47:34.290Z,94252.33
2017-09-21T12:02:34.720Z,94266.52
2017-09-21T12:17:34.692Z,94275.56
2017-09-21T12:32:34.656Z,94287.25
2017-09-21T12:47:34.647Z,94306.78
2017-09-21T13:02:35.031Z,94305.66
2017-09-21T13:17:33.995Z,94314.13
2017-09-21T13:32:34.950Z,94333.27
2017-09-21T13:47:34.971Z,94342.42
2017-09-21T14:02:35.367Z,94333.13
2017-09-21T14:17:34.881Z,94345.28
2017-09-21T14:32:34.558Z,94356.56
2017-09-21T14:47:34.888Z,94360.72
2017-09-21T15:02:34.789Z,94366.69
2017-09-21T15:17:34.783Z,94369.48
2017-09-21T15:47:34.816Z,94435.09
2017-09-21T16:02:35.104Z,94460.42
2017-09-21T16:17:35.063Z,94469.45
2017-09-21T16:32:35.093Z,94490.87
2017-09-21T16:47:35.715Z,94517.78
2017-09-21T17:02:34.434Z,94538.21
2017-09-21T17:17:34.444Z,94549.97
2017-09-21T17:32:42.191Z,94568.70
2017-09-21T17:47:34.405Z,94586.55
2017-09-21T18:02:43.818Z,94595.72
2017-09-21T18:32:38.110Z,94609.27
2017-09-21T19:02:36.935Z,94616.28
2017-09-21T19:32:35.140Z,94615.05
2017-09-21T20:02:40.974Z,94620.16
2017-09-21T20:17:34.971Z,94600.16
2017-09-21T20:32:40.501Z,94608.89
2017-09-21T20:47:34.470Z,94607.90
2017-09-21T21:02:45.069Z,94607.56
2017-09-21T21:17:34.893Z,94594.75
2017-09-21T21:32:34.865Z,94592.50
2017-09-21T21:47:34.826Z,94600.89
2017-09-21T22:02:34.220Z,94599.52
2017-09-21T22:17:36.190Z,94587.73
2017-09-21T22:32:34.234Z,94593.73
2017-09-21T22:47:34.269Z,94583.42
2017-09-21T23:02:35.501Z,94571.77
2017-09-21T23:17:34.630Z,94581.64
2017-09-21T23:32:37.423Z,94583.47
2017-09-21T23:47:34.544Z,94565.58
